ROMMA est une association bénévole à but non lucratif. Votre soutien est indispensable : ADHERER à ROMMA ou FAIRE un DON

Lyon - (69, Rhône)

Plaine lyonnaise (169 m)   Longitude: 04° 49' 55" E   Latitude: 45° 43' 50" N Station partenaire n°124
 

Détail journalier du     <<     >>

Température Precipitation Humidité Pression Vent Dir Rafale Dir. rafale Ensol.
Heure (°C) (mm) (%) (hPa) (km/h) (km/h) (min)
01:00 10.40.39110172SE6SE0
02:00 8.909110181SE3SE0
03:00 8.809410182SE5SE0
04:00 9.209310183S8SO0
05:00 8.609210172S6SE0
06:00 7.809310172SO6S0
07:00 7.209310172SO5SO0
08:00 7.709510172SO5SO0
09:00 8.709310183SO11SO10
10:00 10.209010184SO8SO40
11:00 11.408410187SE14SE60
12:00 12.908010177SO16S60
13:00 14.907410178S16S60
14:00 17.206710168S19SE60
15:00 18.3058101510SO19SE60
16:00 19.2054101510S26SO60
17:00 19.505510149S29S60
18:00 18.8055101310SO31SE30
19:00 18.105910138S21S20
20:00 17.106210149SO21NE0
21:00 16.6066101411S26S0
22:00 16.3068101410S23S0
23:00 16.106810158S24SO0
minuit 16.006810155S14SE0

Graphique du 16-10-2019

 

Serveur OMMA